sensor_id;sensor_type;location;lat;lon;timestamp;pressure;altitude;pressure_sealevel;temperature;humidity
59443;BME280;45247;47.466;19.004;2023-05-12T00:01:16;99965.59;;;10.38;100.00
59443;BME280;45247;47.466;19.004;2023-05-12T00:03:45;99957.97;;;10.33;100.00
59443;BME280;45247;47.466;19.004;2023-05-12T00:06:14;99960.88;;;10.28;100.00
59443;BME280;45247;47.466;19.004;2023-05-12T00:08:42;99955.75;;;10.25;100.00
59443;BME280;45247;47.466;19.004;2023-05-12T00:11:12;99947.75;;;10.27;100.00
59443;BME280;45247;47.466;19.004;2023-05-12T00:13:40;99946.91;;;10.26;100.00
59443;BME280;45247;47.466;19.004;2023-05-12T00:16:09;99955.81;;;10.24;100.00
59443;BME280;45247;47.466;19.004;2023-05-12T00:18:37;99945.28;;;10.24;100.00
59443;BME280;45247;47.466;19.004;2023-05-12T00:21:05;99941.63;;;10.26;100.00
59443;BME280;45247;47.466;19.004;2023-05-12T00:23:34;99940.78;;;10.26;100.00
59443;BME280;45247;47.466;19.004;2023-05-12T00:26:02;99938.13;;;10.26;100.00
59443;BME280;45247;47.466;19.004;2023-05-12T00:28:31;99946.06;;;10.26;100.00
59443;BME280;45247;47.466;19.004;2023-05-12T00:31:01;99947.75;;;10.27;100.00
59443;BME280;45247;47.466;19.004;2023-05-12T00:33:29;99937.19;;;10.27;100.00
59443;BME280;45247;47.466;19.004;2023-05-12T00:35:57;99939.09;;;10.25;100.00
59443;BME280;45247;47.466;19.004;2023-05-12T00:38:29;99946.06;;;10.26;100.00
59443;BME280;45247;47.466;19.004;2023-05-12T00:40:57;99936.34;;;10.26;100.00
59443;BME280;45247;47.466;19.004;2023-05-12T00:43:25;99937.19;;;10.27;100.00
59443;BME280;45247;47.466;19.004;2023-05-12T00:45:55;99942.31;;;10.30;100.00
59443;BME280;45247;47.466;19.004;2023-05-12T00:48:24;99930.22;;;10.26;100.00
59443;BME280;45247;47.466;19.004;2023-05-12T00:50:53;99928.53;;;10.25;100.00
59443;BME280;45247;47.466;19.004;2023-05-12T00:53:21;99929.22;;;10.28;100.00
59443;BME280;45247;47.466;19.004;2023-05-12T00:55:49;99931.75;;;10.30;100.00
59443;BME280;45247;47.466;19.004;2023-05-12T00:58:19;99932.44;;;10.34;100.00
59443;BME280;45247;47.466;19.004;2023-05-12T01:00:47;99928.00;;;10.34;100.00
59443;BME280;45247;47.466;19.004;2023-05-12T01:03:17;99933.19;;;10.36;100.00
59443;BME280;45247;47.466;19.004;2023-05-12T01:05:48;99931.66;;;10.32;100.00
59443;BME280;45247;47.466;19.004;2023-05-12T01:08:19;99922.03;;;10.31;100.00
59443;BME280;45247;47.466;19.004;2023-05-12T01:10:47;99927.16;;;10.34;100.00
59443;BME280;45247;47.466;19.004;2023-05-12T01:13:15;99923.66;;;10.33;100.00
59443;BME280;45247;47.466;19.004;2023-05-12T01:15:46;99918.72;;;10.27;100.00
59443;BME280;45247;47.466;19.004;2023-05-12T01:18:15;99939.09;;;10.25;100.00
59443;BME280;45247;47.466;19.004;2023-05-12T01:20:49;99929.38;;;10.25;100.00
59443;BME280;45247;47.466;19.004;2023-05-12T01:23:18;99935.63;;;10.23;100.00
59443;BME280;45247;47.466;19.004;2023-05-12T01:25:48;99937.34;;;10.24;100.00
59443;BME280;45247;47.466;19.004;2023-05-12T01:28:18;99933.19;;;10.20;100.00
59443;BME280;45247;47.466;19.004;2023-05-12T01:30:48;99942.03;;;10.19;100.00
59443;BME280;45247;47.466;19.004;2023-05-12T01:33:16;99937.53;;;10.21;100.00
59443;BME280;45247;47.466;19.004;2023-05-12T01:35:44;99939.38;;;10.19;100.00
59443;BME280;45247;47.466;19.004;2023-05-12T01:38:13;99934.03;;;10.20;100.00
59443;BME280;45247;47.466;19.004;2023-05-12T01:40:41;99940.00;;;10.24;100.00
59443;BME280;45247;47.466;19.004;2023-05-12T01:43:09;99930.56;;;10.20;100.00
59443;BME280;45247;47.466;19.004;2023-05-12T01:45:38;99939.09;;;10.25;100.00
59443;BME280;45247;47.466;19.004;2023-05-12T01:48:06;99946.91;;;10.26;100.00
59443;BME280;45247;47.466;19.004;2023-05-12T01:50:35;99940.78;;;10.26;100.00
59443;BME280;45247;47.466;19.004;2023-05-12T01:53:03;99956.59;;;10.26;100.00
59443;BME280;45247;47.466;19.004;2023-05-12T01:55:31;99954.91;;;10.25;100.00
59443;BME280;45247;47.466;19.004;2023-05-12T01:58:00;99954.09;;;10.23;100.00
59443;BME280;45247;47.466;19.004;2023-05-12T02:00:28;99955.16;;;10.20;100.00
59443;BME280;45247;47.466;19.004;2023-05-12T02:02:57;99949.94;;;10.19;100.00
59443;BME280;45247;47.466;19.004;2023-05-12T02:05:26;99960.69;;;10.16;100.00
59443;BME280;45247;47.466;19.004;2023-05-12T02:07:54;99957.09;;;10.17;100.00
59443;BME280;45247;47.466;19.004;2023-05-12T02:10:22;99955.56;;;10.13;100.00
59443;BME280;45247;47.466;19.004;2023-05-12T02:12:50;99956.25;;;10.16;100.00
59443;BME280;45247;47.466;19.004;2023-05-12T02:15:18;99958.97;;;10.15;100.00
59443;BME280;45247;47.466;19.004;2023-05-12T02:17:46;99960.75;;;10.14;100.00
59443;BME280;45247;47.466;19.004;2023-05-12T02:20:17;99961.69;;;10.13;100.00
59443;BME280;45247;47.466;19.004;2023-05-12T02:22:46;99961.84;;;10.10;100.00
59443;BME280;45247;47.466;19.004;2023-05-12T02:25:14;99959.31;;;10.09;100.00
59443;BME280;45247;47.466;19.004;2023-05-12T02:27:42;99966.28;;;10.10;100.00
59443;BME280;45247;47.466;19.004;2023-05-12T02:30:11;99961.22;;;10.07;100.00
59443;BME280;45247;47.466;19.004;2023-05-12T02:32:39;99964.00;;;10.03;100.00
59443;BME280;45247;47.466;19.004;2023-05-12T02:35:08;99963.91;;;10.05;100.00
59443;BME280;45247;47.466;19.004;2023-05-12T02:37:37;99960.59;;;10.01;100.00
59443;BME280;45247;47.466;19.004;2023-05-12T02:40:06;99963.16;;;10.03;100.00
59443;BME280;45247;47.466;19.004;2023-05-12T02:42:35;99960.44;;;10.04;100.00
59443;BME280;45247;47.466;19.004;2023-05-12T02:45:05;99958.63;;;10.05;100.00
59443;BME280;45247;47.466;19.004;2023-05-12T02:47:33;99966.47;;;10.07;100.00
59443;BME280;45247;47.466;19.004;2023-05-12T02:50:02;99964.69;;;10.07;100.00
59443;BME280;45247;47.466;19.004;2023-05-12T02:52:31;99961.97;;;10.09;100.00
59443;BME280;45247;47.466;19.004;2023-05-12T02:55:00;99964.75;;;10.06;100.00
59443;BME280;45247;47.466;19.004;2023-05-12T02:57:28;99959.69;;;10.02;100.00
59443;BME280;45247;47.466;19.004;2023-05-12T02:59:59;99963.22;;;10.01;100.00
59443;BME280;45247;47.466;19.004;2023-05-12T03:02:30;99969.59;;;9.97;100.00
59443;BME280;45247;47.466;19.004;2023-05-12T03:04:58;99975.81;;;9.96;100.00
59443;BME280;45247;47.466;19.004;2023-05-12T03:07:27;99972.34;;;9.96;100.00
59443;BME280;45247;47.466;19.004;2023-05-12T03:09:55;99967.66;;;10.01;100.00
59443;BME280;45247;47.466;19.004;2023-05-12T03:12:24;99966.97;;;9.97;100.00
59443;BME280;45247;47.466;19.004;2023-05-12T03:14:54;99960.84;;;9.97;100.00
59443;BME280;45247;47.466;19.004;2023-05-12T03:17:22;99962.56;;;9.98;100.00
59443;BME280;45247;47.466;19.004;2023-05-12T03:19:50;99970.56;;;9.96;100.00
59443;BME280;45247;47.466;19.004;2023-05-12T03:22:19;99956.63;;;9.94;100.00
59443;BME280;45247;47.466;19.004;2023-05-12T03:24:47;99962.75;;;9.95;100.00
59443;BME280;45247;47.466;19.004;2023-05-12T03:27:15;99963.50;;;9.97;100.00
59443;BME280;45247;47.466;19.004;2023-05-12T03:29:44;99965.28;;;9.96;100.00
59443;BME280;45247;47.466;19.004;2023-05-12T03:32:13;99967.66;;;10.01;100.00
59443;BME280;45247;47.466;19.004;2023-05-12T03:34:41;99963.31;;;10.00;100.00
59443;BME280;45247;47.466;19.004;2023-05-12T03:37:09;99965.13;;;9.99;100.00
59443;BME280;45247;47.466;19.004;2023-05-12T03:39:37;99978.19;;;10.01;100.00
59443;BME280;45247;47.466;19.004;2023-05-12T03:42:05;99976.50;;;10.00;100.00
59443;BME280;45247;47.466;19.004;2023-05-12T03:44:33;99977.72;;;9.94;100.00
59443;BME280;45247;47.466;19.004;2023-05-12T03:47:03;99969.03;;;9.92;100.00
59443;BME280;45247;47.466;19.004;2023-05-12T03:49:32;99974.97;;;9.96;100.00
59443;BME280;45247;47.466;19.004;2023-05-12T03:52:00;99979.41;;;9.95;100.00
59443;BME280;45247;47.466;19.004;2023-05-12T03:54:28;99978.47;;;9.96;100.00
59443;BME280;45247;47.466;19.004;2023-05-12T03:56:56;99979.25;;;9.98;100.00
59443;BME280;45247;47.466;19.004;2023-05-12T03:59:24;99982.13;;;9.94;100.00
59443;BME280;45247;47.466;19.004;2023-05-12T04:01:52;99984.84;;;9.92;100.00
59443;BME280;45247;47.466;19.004;2023-05-12T04:04:22;99979.41;;;9.95;100.00
59443;BME280;45247;47.466;19.004;2023-05-12T04:06:50;99987.41;;;9.94;100.00
59443;BME280;45247;47.466;19.004;2023-05-12T04:09:18;99992.44;;;9.98;100.00
59443;BME280;45247;47.466;19.004;2023-05-12T04:11:47;99986.97;;;10.01;100.00
59443;BME280;45247;47.466;19.004;2023-05-12T04:14:15;99993.19;;;10.00;100.00
59443;BME280;45247;47.466;19.004;2023-05-12T04:16:43;99996.75;;;9.99;100.00
59443;BME280;45247;47.466;19.004;2023-05-12T04:19:12;100002.88;;;10.00;100.00
59443;BME280;45247;47.466;19.004;2023-05-12T04:21:41;99997.25;;;10.06;100.00
59443;BME280;45247;47.466;19.004;2023-05-12T04:24:10;99998.13;;;10.07;100.00
59443;BME280;45247;47.466;19.004;2023-05-12T04:26:38;99997.94;;;10.10;100.00
59443;BME280;45247;47.466;19.004;2023-05-12T04:29:06;99994.44;;;10.09;100.00
59443;BME280;45247;47.466;19.004;2023-05-12T04:31:34;99998.13;;;10.07;100.00
59443;BME280;45247;47.466;19.004;2023-05-12T04:34:02;100000.66;;;10.08;100.00
59443;BME280;45247;47.466;19.004;2023-05-12T04:36:30;99992.50;;;10.13;100.00
59443;BME280;45247;47.466;19.004;2023-05-12T04:39:00;99995.88;;;10.15;100.00
59443;BME280;45247;47.466;19.004;2023-05-12T04:41:28;99996.06;;;10.12;100.00
59443;BME280;45247;47.466;19.004;2023-05-12T04:43:56;99999.47;;;10.14;100.00
59443;BME280;45247;47.466;19.004;2023-05-12T04:46:26;99998.63;;;10.13;100.00
59443;BME280;45247;47.466;19.004;2023-05-12T04:48:54;99999.56;;;10.12;100.00
59443;BME280;45247;47.466;19.004;2023-05-12T04:51:22;99994.38;;;10.11;100.00
59443;BME280;45247;47.466;19.004;2023-05-12T04:53:51;100002.09;;;10.14;100.00
59443;BME280;45247;47.466;19.004;2023-05-12T04:56:20;99994.59;;;10.06;100.00
59443;BME280;45247;47.466;19.004;2023-05-12T04:58:49;100004.94;;;10.11;100.00
59443;BME280;45247;47.466;19.004;2023-05-12T05:01:17;100000.41;;;10.13;100.00
59443;BME280;45247;47.466;19.004;2023-05-12T05:03:45;100006.63;;;10.12;100.00
59443;BME280;45247;47.466;19.004;2023-05-12T05:06:13;100007.47;;;10.12;100.00
59443;BME280;45247;47.466;19.004;2023-05-12T05:08:42;100007.22;;;10.17;100.00
59443;BME280;45247;47.466;19.004;2023-05-12T05:11:10;100010.09;;;10.12;100.00
59443;BME280;45247;47.466;19.004;2023-05-12T05:13:40;100006.94;;;10.21;100.00
59443;BME280;45247;47.466;19.004;2023-05-12T05:16:08;100010.31;;;10.25;100.00
59443;BME280;45247;47.466;19.004;2023-05-12T05:18:36;100005.94;;;10.24;100.00
59443;BME280;45247;47.466;19.004;2023-05-12T05:21:07;100010.72;;;10.33;100.00
59443;BME280;45247;47.466;19.004;2023-05-12T05:23:35;100006.63;;;10.27;100.00
59443;BME280;45247;47.466;19.004;2023-05-12T05:26:03;100007.66;;;10.25;100.00
59443;BME280;45247;47.466;19.004;2023-05-12T05:28:32;100004.22;;;10.23;100.00
59443;BME280;45247;47.466;19.004;2023-05-12T05:31:01;100009.34;;;10.26;100.00
59443;BME280;45247;47.466;19.004;2023-05-12T05:33:29;100004.09;;;10.26;100.00
59443;BME280;45247;47.466;19.004;2023-05-12T05:35:58;100013.84;;;10.24;100.00
59443;BME280;45247;47.466;19.004;2023-05-12T05:38:26;100012.78;;;10.28;100.00
59443;BME280;45247;47.466;19.004;2023-05-12T05:40:54;100017.69;;;10.34;100.00
59443;BME280;45247;47.466;19.004;2023-05-12T05:43:23;100012.25;;;10.37;100.00
59443;BME280;45247;47.466;19.004;2023-05-12T05:45:51;100015.56;;;10.41;100.00
59443;BME280;45247;47.466;19.004;2023-05-12T05:48:20;100010.03;;;10.45;100.00
59443;BME280;45247;47.466;19.004;2023-05-12T05:50:49;100016.91;;;10.48;100.00
59443;BME280;45247;47.466;19.004;2023-05-12T05:53:18;100024.22;;;10.43;100.00
59443;BME280;45247;47.466;19.004;2023-05-12T05:55:46;100024.13;;;10.44;100.00
59443;BME280;45247;47.466;19.004;2023-05-12T05:58:15;100024.81;;;10.48;100.00
59443;BME280;45247;47.466;19.004;2023-05-12T06:00:43;100020.63;;;10.60;100.00
59443;BME280;45247;47.466;19.004;2023-05-12T06:03:12;100027.03;;;10.56;100.00
59443;BME280;45247;47.466;19.004;2023-05-12T06:05:42;100025.75;;;10.63;100.00
59443;BME280;45247;47.466;19.004;2023-05-12T06:08:10;100029.50;;;10.59;100.00
59443;BME280;45247;47.466;19.004;2023-05-12T06:10:39;100027.34;;;10.65;100.00
59443;BME280;45247;47.466;19.004;2023-05-12T06:13:07;100039.28;;;10.57;100.00
59443;BME280;45247;47.466;19.004;2023-05-12T06:15:36;100034.00;;;10.57;100.00
59443;BME280;45247;47.466;19.004;2023-05-12T06:18:04;100033.50;;;10.50;100.00
59443;BME280;45247;47.466;19.004;2023-05-12T06:20:32;100034.34;;;10.50;100.00
59443;BME280;45247;47.466;19.004;2023-05-12T06:23:02;100033.31;;;10.53;100.00
59443;BME280;45247;47.466;19.004;2023-05-12T06:25:31;100037.41;;;10.59;100.00
59443;BME280;45247;47.466;19.004;2023-05-12T06:28:01;100029.56;;;10.57;100.00
59443;BME280;45247;47.466;19.004;2023-05-12T06:30:29;100031.19;;;10.60;100.00
59443;BME280;45247;47.466;19.004;2023-05-12T06:32:57;100031.09;;;10.61;100.00
59443;BME280;45247;47.466;19.004;2023-05-12T06:35:25;100038.69;;;10.51;100.00
59443;BME280;45247;47.466;19.004;2023-05-12T06:37:53;100034.34;;;10.50;100.00
59443;BME280;45247;47.466;19.004;2023-05-12T06:40:23;100026.06;;;10.57;100.00
59443;BME280;45247;47.466;19.004;2023-05-12T06:42:51;100034.78;;;10.59;100.00
59443;BME280;45247;47.466;19.004;2023-05-12T06:45:19;100025.91;;;10.60;100.00
59443;BME280;45247;47.466;19.004;2023-05-12T06:47:49;100022.16;;;10.64;100.00
59443;BME280;45247;47.466;19.004;2023-05-12T06:50:17;100029.25;;;10.77;100.00
59443;BME280;45247;47.466;19.004;2023-05-12T06:52:45;100024.38;;;10.86;100.00
59443;BME280;45247;47.466;19.004;2023-05-12T06:55:14;100024.22;;;10.89;100.00
59443;BME280;45247;47.466;19.004;2023-05-12T06:57:47;100024.78;;;10.94;100.00
59443;BME280;45247;47.466;19.004;2023-05-12T07:00:17;100029.25;;;11.08;100.00
59443;BME280;45247;47.466;19.004;2023-05-12T07:02:45;100032.28;;;11.16;100.00
59443;BME280;45247;47.466;19.004;2023-05-12T07:05:14;100029.66;;;11.30;100.00
59443;BME280;45247;47.466;19.004;2023-05-12T07:07:42;100019.47;;;11.38;100.00
59443;BME280;45247;47.466;19.004;2023-05-12T07:10:10;100025.50;;;11.26;100.00
59443;BME280;45247;47.466;19.004;2023-05-12T07:12:38;100026.94;;;11.32;100.00
59443;BME280;45247;47.466;19.004;2023-05-12T07:15:09;100030.31;;;11.34;100.00
59443;BME280;45247;47.466;19.004;2023-05-12T07:17:37;100020.13;;;11.27;100.00
59443;BME280;45247;47.466;19.004;2023-05-12T07:20:07;100020.97;;;11.28;100.00
59443;BME280;45247;47.466;19.004;2023-05-12T07:22:35;100029.19;;;11.23;100.00
59443;BME280;45247;47.466;19.004;2023-05-12T07:25:05;100026.06;;;11.17;100.00
59443;BME280;45247;47.466;19.004;2023-05-12T07:27:34;100024.25;;;11.17;100.00
59443;BME280;45247;47.466;19.004;2023-05-12T07:30:02;100026.28;;;11.28;100.00
59443;BME280;45247;47.466;19.004;2023-05-12T07:32:33;100020.41;;;11.37;100.00
59443;BME280;45247;47.466;19.004;2023-05-12T07:35:01;100025.91;;;11.48;100.00
59443;BME280;45247;47.466;19.004;2023-05-12T07:37:29;100014.56;;;11.46;100.00
59443;BME280;45247;47.466;19.004;2023-05-12T07:39:57;100024.97;;;11.49;100.00
59443;BME280;45247;47.466;19.004;2023-05-12T07:42:25;100026.00;;;11.47;100.00
59443;BME280;45247;47.466;19.004;2023-05-12T07:44:54;100026.66;;;11.50;100.00
59443;BME280;45247;47.466;19.004;2023-05-12T07:47:22;100020.63;;;11.63;100.00
59443;BME280;45247;47.466;19.004;2023-05-12T07:49:51;100026.84;;;11.76;100.00
59443;BME280;45247;47.466;19.004;2023-05-12T07:52:19;100037.22;;;11.79;100.00
59443;BME280;45247;47.466;19.004;2023-05-12T07:54:47;100034.22;;;11.85;100.00
59443;BME280;45247;47.466;19.004;2023-05-12T07:57:15;100022.91;;;11.83;100.00
59443;BME280;45247;47.466;19.004;2023-05-12T07:59:44;100025.91;;;11.91;100.00
59443;BME280;45247;47.466;19.004;2023-05-12T08:02:12;100037.25;;;11.93;100.00
59443;BME280;45247;47.466;19.004;2023-05-12T08:04:40;100033.94;;;11.90;100.00
59443;BME280;45247;47.466;19.004;2023-05-12T08:07:11;100026.09;;;11.88;100.00
59443;BME280;45247;47.466;19.004;2023-05-12T08:09:39;100038.63;;;11.99;100.00
59443;BME280;45247;47.466;19.004;2023-05-12T08:12:07;100034.84;;;12.03;100.00
59443;BME280;45247;47.466;19.004;2023-05-12T08:14:36;100042.72;;;12.05;100.00
59443;BME280;45247;47.466;19.004;2023-05-12T08:17:04;100056.13;;;12.01;100.00
59443;BME280;45247;47.466;19.004;2023-05-12T08:19:33;100051.13;;;11.97;100.00
59443;BME280;45247;47.466;19.004;2023-05-12T08:22:01;100048.09;;;11.89;100.00
59443;BME280;45247;47.466;19.004;2023-05-12T08:24:31;100048.00;;;12.05;100.00
59443;BME280;45247;47.466;19.004;2023-05-12T08:26:59;100044.81;;;11.99;100.00
59443;BME280;45247;47.466;19.004;2023-05-12T08:29:27;100034.78;;;12.05;100.00
59443;BME280;45247;47.466;19.004;2023-05-12T08:31:56;100052.22;;;12.07;100.00
59443;BME280;45247;47.466;19.004;2023-05-12T08:34:24;100049.94;;;12.15;100.00
59443;BME280;45247;47.466;19.004;2023-05-12T08:36:53;100049.88;;;12.17;100.00
59443;BME280;45247;47.466;19.004;2023-05-12T08:39:21;100044.72;;;12.28;100.00
59443;BME280;45247;47.466;19.004;2023-05-12T08:41:58;100049.66;;;12.20;100.00
59443;BME280;45247;47.466;19.004;2023-05-12T08:44:29;100053.91;;;12.22;100.00
59443;BME280;45247;47.466;19.004;2023-05-12T08:46:58;100059.56;;;12.31;100.00
59443;BME280;45247;47.466;19.004;2023-05-12T08:49:28;100060.41;;;12.31;100.00
59443;BME280;45247;47.466;19.004;2023-05-12T08:52:00;100057.72;;;12.45;100.00
59443;BME280;45247;47.466;19.004;2023-05-12T08:54:29;100069.97;;;12.34;100.00
59443;BME280;45247;47.466;19.004;2023-05-12T08:57:00;100055.31;;;12.28;100.00
59443;BME280;45247;47.466;19.004;2023-05-12T08:59:31;100050.97;;;12.27;100.00
59443;BME280;45247;47.466;19.004;2023-05-12T09:02:00;100057.03;;;12.29;100.00
59443;BME280;45247;47.466;19.004;2023-05-12T09:04:30;100054.88;;;12.21;100.00
59443;BME280;45247;47.466;19.004;2023-05-12T09:06:58;100068.16;;;12.20;100.00
59443;BME280;45247;47.466;19.004;2023-05-12T09:09:27;100060.63;;;12.14;100.00
59443;BME280;45247;47.466;19.004;2023-05-12T09:12:01;100059.47;;;11.91;100.00
59443;BME280;45247;47.466;19.004;2023-05-12T09:14:33;100075.19;;;11.78;100.00
59443;BME280;45247;47.466;19.004;2023-05-12T09:17:03;100074.81;;;11.70;100.00
59443;BME280;45247;47.466;19.004;2023-05-12T09:19:32;100079.25;;;11.69;100.00
59443;BME280;45247;47.466;19.004;2023-05-12T09:22:00;100075.94;;;11.66;100.00
59443;BME280;45247;47.466;19.004;2023-05-12T09:24:35;100084.16;;;11.61;100.00
59443;BME280;45247;47.466;19.004;2023-05-12T09:27:06;100077.06;;;11.62;100.00
59443;BME280;45247;47.466;19.004;2023-05-12T09:29:34;100085.38;;;11.56;100.00
59443;BME280;45247;47.466;19.004;2023-05-12T09:32:13;100089.34;;;11.48;100.00
59443;BME280;45247;47.466;19.004;2023-05-12T09:34:42;100096.66;;;11.29;100.00
59443;BME280;45247;47.466;19.004;2023-05-12T09:37:10;100110.31;;;11.21;100.00
59443;BME280;45247;47.466;19.004;2023-05-12T09:39:41;100104.19;;;11.21;100.00
59443;BME280;45247;47.466;19.004;2023-05-12T09:42:13;100112.81;;;11.09;100.00
59443;BME280;45247;47.466;19.004;2023-05-12T09:44:41;100101.09;;;10.98;100.00
59443;BME280;45247;47.466;19.004;2023-05-12T09:47:10;100110.53;;;11.02;100.00
59443;BME280;45247;47.466;19.004;2023-05-12T09:49:44;100098.28;;;11.01;100.00
59443;BME280;45247;47.466;19.004;2023-05-12T09:52:14;100107.75;;;11.20;100.00
59443;BME280;45247;47.466;19.004;2023-05-12T09:54:43;100105.97;;;11.20;100.00
59443;BME280;45247;47.466;19.004;2023-05-12T09:57:14;100100.84;;;11.17;100.00
59443;BME280;45247;47.466;19.004;2023-05-12T09:59:43;100101.78;;;11.02;100.00
59443;BME280;45247;47.466;19.004;2023-05-12T10:02:13;100102.91;;;10.98;100.00
59443;BME280;45247;47.466;19.004;2023-05-12T10:04:48;100098.47;;;10.98;100.00
59443;BME280;45247;47.466;19.004;2023-05-12T10:07:21;100100.34;;;10.96;100.00
59443;BME280;45247;47.466;19.004;2023-05-12T10:09:53;100109.31;;;11.08;100.00
59443;BME280;45247;47.466;19.004;2023-05-12T10:12:23;100108.41;;;11.09;100.00
59443;BME280;45247;47.466;19.004;2023-05-12T10:14:52;100106.97;;;11.03;100.00
59443;BME280;45247;47.466;19.004;2023-05-12T10:17:22;100106.63;;;11.10;100.00
59443;BME280;45247;47.466;19.004;2023-05-12T10:19:53;100100.72;;;11.04;100.00
59443;BME280;45247;47.466;19.004;2023-05-12T10:22:21;100101.59;;;11.05;100.00
59443;BME280;45247;47.466;19.004;2023-05-12T10:24:50;100100.25;;;10.98;100.00
59443;BME280;45247;47.466;19.004;2023-05-12T10:27:21;100101.22;;;10.81;100.00
59443;BME280;45247;47.466;19.004;2023-05-12T10:29:52;100092.88;;;10.73;100.00
59443;BME280;45247;47.466;19.004;2023-05-12T10:32:20;100097.00;;;10.63;100.00
59443;BME280;45247;47.466;19.004;2023-05-12T10:34:49;100100.38;;;10.49;100.00
59443;BME280;45247;47.466;19.004;2023-05-12T10:37:17;100109.00;;;10.52;100.00
59443;BME280;45247;47.466;19.004;2023-05-12T10:39:47;100098.84;;;10.61;100.00
59443;BME280;45247;47.466;19.004;2023-05-12T10:42:16;100108.47;;;10.62;100.00
59443;BME280;45247;47.466;19.004;2023-05-12T10:44:49;100105.50;;;10.68;100.00
59443;BME280;45247;47.466;19.004;2023-05-12T10:47:22;100103.81;;;10.67;100.00
59443;BME280;45247;47.466;19.004;2023-05-12T10:49:55;100105.81;;;10.77;100.00
59443;BME280;45247;47.466;19.004;2023-05-12T10:52:24;100107.66;;;10.91;100.00
59443;BME280;45247;47.466;19.004;2023-05-12T10:54:59;100106.22;;;11.01;100.00
59443;BME280;45247;47.466;19.004;2023-05-12T10:57:27;100111.38;;;11.03;100.00
59443;BME280;45247;47.466;19.004;2023-05-12T10:59:58;100108.31;;;11.11;100.00
59443;BME280;45247;47.466;19.004;2023-05-12T11:02:33;100105.97;;;11.20;100.00
59443;BME280;45247;47.466;19.004;2023-05-12T11:05:10;100135.47;;;11.13;100.00
59443;BME280;45247;47.466;19.004;2023-05-12T11:07:39;100112.25;;;11.03;100.00
59443;BME280;45247;47.466;19.004;2023-05-12T11:10:09;100109.88;;;10.99;100.00
59443;BME280;45247;47.466;19.004;2023-05-12T11:12:38;100110.22;;;10.93;100.00
59443;BME280;45247;47.466;19.004;2023-05-12T11:15:07;100112.78;;;10.94;100.00
59443;BME280;45247;47.466;19.004;2023-05-12T11:17:38;100117.69;;;11.00;100.00
59443;BME280;45247;47.466;19.004;2023-05-12T11:20:07;100106.00;;;11.04;100.00
59443;BME280;45247;47.466;19.004;2023-05-12T11:22:39;100108.72;;;10.73;100.00
59443;BME280;45247;47.466;19.004;2023-05-12T11:25:09;100111.72;;;10.67;100.00
59443;BME280;45247;47.466;19.004;2023-05-12T11:27:37;100112.63;;;10.66;100.00
59443;BME280;45247;47.466;19.004;2023-05-12T11:30:09;100110.78;;;10.68;100.00
59443;BME280;45247;47.466;19.004;2023-05-12T11:32:39;100110.63;;;10.71;100.00
59443;BME280;45247;47.466;19.004;2023-05-12T11:35:09;100102.09;;;10.66;100.00
59443;BME280;45247;47.466;19.004;2023-05-12T11:37:37;100112.47;;;10.69;100.00
59443;BME280;45247;47.466;19.004;2023-05-12T11:40:14;100108.19;;;10.82;100.00
59443;BME280;45247;47.466;19.004;2023-05-12T11:42:43;100099.47;;;10.96;100.00
59443;BME280;45247;47.466;19.004;2023-05-12T11:45:19;100102.03;;;10.97;100.00
59443;BME280;45247;47.466;19.004;2023-05-12T11:47:50;100105.44;;;10.99;100.00
59443;BME280;45247;47.466;19.004;2023-05-12T11:50:20;100110.53;;;11.02;100.00
59443;BME280;45247;47.466;19.004;2023-05-12T11:52:49;100106.78;;;11.07;100.00
59443;BME280;45247;47.466;19.004;2023-05-12T11:55:22;100111.69;;;11.13;100.00
59443;BME280;45247;47.466;19.004;2023-05-12T11:57:55;100104.25;;;11.05;100.00
59443;BME280;45247;47.466;19.004;2023-05-12T12:00:31;100116.34;;;11.09;100.00
59443;BME280;45247;47.466;19.004;2023-05-12T12:03:10;100116.19;;;10.96;100.00
59443;BME280;45247;47.466;19.004;2023-05-12T12:05:39;100104.69;;;10.97;100.00
59443;BME280;45247;47.466;19.004;2023-05-12T12:08:09;100115.72;;;11.04;100.00
59443;BME280;45247;47.466;19.004;2023-05-12T12:10:42;100114.66;;;10.92;100.00
59443;BME280;45247;47.466;19.004;2023-05-12T12:13:11;100105.97;;;10.90;100.00
59443;BME280;45247;47.466;19.004;2023-05-12T12:15:39;100113.28;;;11.01;100.00
59443;BME280;45247;47.466;19.004;2023-05-12T12:18:08;100109.75;;;11.00;100.00
59443;BME280;45247;47.466;19.004;2023-05-12T12:20:37;100108.19;;;10.98;100.00
59443;BME280;45247;47.466;19.004;2023-05-12T12:23:05;100112.59;;;10.97;100.00
59443;BME280;45247;47.466;19.004;2023-05-12T12:25:33;100120.78;;;10.93;100.00
59443;BME280;45247;47.466;19.004;2023-05-12T12:28:01;100121.97;;;10.87;100.00
59443;BME280;45247;47.466;19.004;2023-05-12T12:30:29;100122.59;;;10.76;100.00
59443;BME280;45247;47.466;19.004;2023-05-12T12:32:58;100122.03;;;10.71;100.00
59443;BME280;45247;47.466;19.004;2023-05-12T12:35:27;100121.25;;;10.69;100.00
59443;BME280;45247;47.466;19.004;2023-05-12T12:37:55;100119.28;;;10.57;100.00
59443;BME280;45247;47.466;19.004;2023-05-12T12:40:24;100122.19;;;10.52;100.00
59443;BME280;45247;47.466;19.004;2023-05-12T12:42:52;100125.59;;;10.55;100.00
59443;BME280;45247;47.466;19.004;2023-05-12T12:45:20;100127.47;;;10.52;100.00